createdAt,value
2022-11-15T00:00:30.417Z,11.79
2022-11-15T00:05:52.217Z,11.12
2022-11-15T00:11:14.050Z,10.59
2022-11-15T00:16:35.709Z,10.14
2022-11-15T00:21:57.063Z,11.28
2022-11-15T00:27:18.733Z,14.48
2022-11-15T00:32:40.049Z,14.37
2022-11-15T00:38:02.442Z,12.73
2022-11-15T00:43:24.212Z,11.77
2022-11-15T00:48:45.607Z,11.08
2022-11-15T00:54:07.031Z,10.54
2022-11-15T00:59:28.645Z,10.08
2022-11-15T01:04:50.234Z,11.22
2022-11-15T01:10:12.395Z,14.57
2022-11-15T01:15:33.895Z,14.17
2022-11-15T01:20:55.446Z,12.55
2022-11-15T01:26:17.601Z,11.61
2022-11-15T01:31:39.223Z,10.92
2022-11-15T01:37:01.685Z,10.40
2022-11-15T01:42:23.160Z,9.93
2022-11-15T01:47:51.625Z,11.13
2022-11-15T01:53:13.819Z,14.36
2022-11-15T01:58:36.548Z,13.37
2022-11-15T02:04:07.931Z,11.96
2022-11-15T02:09:30.544Z,11.12
2022-11-15T02:14:55.757Z,10.50
2022-11-15T02:20:20.323Z,10.01
2022-11-15T02:26:00.659Z,9.59
2022-11-15T02:31:29.522Z,11.07
2022-11-15T02:37:03.077Z,14.34
2022-11-15T02:42:47.215Z,13.30
2022-11-15T02:48:10.886Z,11.79
2022-11-15T02:53:32.908Z,10.92
2022-11-15T02:59:26.582Z,10.28
2022-11-15T03:04:56.844Z,9.73
2022-11-15T03:10:26.758Z,9.32
2022-11-15T03:15:59.116Z,10.68
2022-11-15T03:21:23.163Z,14.02
2022-11-15T03:26:46.702Z,13.62
2022-11-15T03:32:15.471Z,11.93
2022-11-15T03:37:46.999Z,10.95
2022-11-15T03:43:36.344Z,10.28
2022-11-15T03:49:12.210Z,9.69
2022-11-15T03:54:33.694Z,9.23
2022-11-15T03:59:55.064Z,10.47
2022-11-15T04:05:16.846Z,13.75
2022-11-15T04:10:38.092Z,13.41
2022-11-15T04:15:59.402Z,11.83
2022-11-15T04:21:39.338Z,10.92
2022-11-15T04:27:01.243Z,10.22
2022-11-15T04:32:22.797Z,9.71
2022-11-15T04:37:49.099Z,9.27
2022-11-15T04:43:11.396Z,10.46
2022-11-15T04:48:33.060Z,13.80
2022-11-15T04:53:54.851Z,13.51
2022-11-15T04:59:16.267Z,11.82
2022-11-15T05:04:37.605Z,10.89
2022-11-15T05:09:59.014Z,10.24
2022-11-15T05:15:20.623Z,9.72
2022-11-15T05:20:42.193Z,9.28
2022-11-15T05:26:08.994Z,10.46
2022-11-15T05:31:31.082Z,13.81
2022-11-15T05:36:52.536Z,13.04
2022-11-15T05:42:16.278Z,11.50
2022-11-15T05:47:40.394Z,10.59
2022-11-15T05:53:05.307Z,9.89
2022-11-15T05:58:27.226Z,9.29
2022-11-15T06:03:48.859Z,8.83
2022-11-15T06:09:10.235Z,9.96
2022-11-15T06:14:31.619Z,13.32
2022-11-15T06:19:53.023Z,13.02
2022-11-15T06:25:14.835Z,11.39
2022-11-15T06:30:36.630Z,10.47
2022-11-15T06:36:05.862Z,9.82
2022-11-15T06:41:27.924Z,9.31
2022-11-15T06:46:50.759Z,8.90
2022-11-15T06:52:13.453Z,8.55
2022-11-15T06:57:36.592Z,9.83
2022-11-15T07:03:03.866Z,13.23
2022-11-15T07:08:29.909Z,12.77
2022-11-15T07:13:51.999Z,11.15
2022-11-15T07:19:15.836Z,10.27
2022-11-15T07:24:38.689Z,9.56
2022-11-15T07:30:00.939Z,9.03
2022-11-15T07:35:24.566Z,8.64
2022-11-15T07:40:48.792Z,8.38
2022-11-15T07:46:11.935Z,9.76
2022-11-15T07:51:34.901Z,13.17
2022-11-15T07:57:01.220Z,12.92
2022-11-15T08:02:30.589Z,11.31
2022-11-15T08:07:58.353Z,10.42
2022-11-15T08:13:22.700Z,9.82
2022-11-15T08:18:45.972Z,9.35
2022-11-15T08:24:12.520Z,8.98
2022-11-15T08:29:35.169Z,8.72
2022-11-15T08:34:58.023Z,10.06
2022-11-15T08:40:22.327Z,13.52
2022-11-15T08:45:44.231Z,13.09
2022-11-15T08:51:07.953Z,11.65
2022-11-15T08:56:31.499Z,10.89
2022-11-15T09:01:54.384Z,10.33
2022-11-15T09:07:19.315Z,9.88
2022-11-15T09:12:43.451Z,9.54
2022-11-15T09:18:05.651Z,10.74
2022-11-15T09:23:28.238Z,14.18
2022-11-15T09:28:52.557Z,13.67
2022-11-15T09:34:16.562Z,12.22
2022-11-15T09:39:39.517Z,11.45
2022-11-15T09:45:15.194Z,10.94
2022-11-15T09:50:48.259Z,10.53
2022-11-15T09:56:04.936Z,10.20
2022-11-15T10:01:20.102Z,9.97
2022-11-15T10:06:27.245Z,11.33
2022-11-15T10:11:38.344Z,14.84
2022-11-15T10:17:04.369Z,14.98
2022-11-15T10:22:29.188Z,13.58
2022-11-15T10:27:32.502Z,12.93
2022-11-15T10:32:37.880Z,12.53
2022-11-15T10:37:41.932Z,12.23
2022-11-15T10:42:46.639Z,11.98
2022-11-15T10:47:50.485Z,11.83
2022-11-15T10:52:55.216Z,11.74
2022-11-15T10:58:24.227Z,11.65
2022-11-15T11:03:34.096Z,11.57
2022-11-15T11:08:42.179Z,11.52
2022-11-15T11:13:46.177Z,12.83
2022-11-15T11:19:05.236Z,16.10
2022-11-15T11:24:27.550Z,15.48
2022-11-15T11:29:50.723Z,14.49
2022-11-15T11:35:09.893Z,14.00
2022-11-15T11:40:39.071Z,13.68
2022-11-15T11:46:10.940Z,13.45
2022-11-15T11:51:22.194Z,13.32
2022-11-15T11:56:36.065Z,13.23
2022-11-15T12:01:45.410Z,13.15
2022-11-15T12:07:00.425Z,13.11
2022-11-15T12:12:16.046Z,13.07
2022-11-15T12:17:26.875Z,13.05
2022-11-15T12:22:57.009Z,13.05
2022-11-15T12:28:20.148Z,13.05
2022-11-15T12:33:32.879Z,12.99
2022-11-15T12:38:56.795Z,12.95
2022-11-15T12:44:03.341Z,12.87
2022-11-15T12:49:29.148Z,12.78
2022-11-15T12:54:40.990Z,12.67
2022-11-15T13:00:05.095Z,12.58
2022-11-15T13:05:16.518Z,12.50
2022-11-15T13:10:31.215Z,13.79
2022-11-15T13:15:42.750Z,16.93
2022-11-15T13:20:46.611Z,16.15
2022-11-15T13:26:13.625Z,15.07
2022-11-15T13:31:35.829Z,14.41
2022-11-15T13:36:38.791Z,13.95
2022-11-15T13:41:50.474Z,13.59
2022-11-15T13:47:30.514Z,13.28
2022-11-15T13:52:38.190Z,13.03
2022-11-15T13:57:46.840Z,12.82
2022-11-15T14:02:49.806Z,12.66
2022-11-15T14:07:58.332Z,12.54
2022-11-15T14:13:02.553Z,13.78
2022-11-15T14:18:07.050Z,16.97
2022-11-15T14:23:29.475Z,16.49
2022-11-15T14:28:38.414Z,15.23
2022-11-15T14:33:42.466Z,14.56
2022-11-15T14:38:46.008Z,14.09
2022-11-15T14:43:50.042Z,13.67
2022-11-15T14:48:53.018Z,13.33
2022-11-15T14:53:56.480Z,13.07
2022-11-15T14:58:59.629Z,12.85
2022-11-15T15:04:02.781Z,12.66
2022-11-15T15:09:06.343Z,12.54
2022-11-15T15:14:09.629Z,13.98
2022-11-15T15:19:12.786Z,17.16
2022-11-15T15:24:16.137Z,16.72
2022-11-15T15:29:19.107Z,15.46
2022-11-15T15:34:22.118Z,14.75
2022-11-15T15:39:25.184Z,14.24
2022-11-15T15:44:28.139Z,13.81
2022-11-15T15:49:31.090Z,13.45
2022-11-15T15:54:34.092Z,13.16
2022-11-15T15:59:37.100Z,12.92
2022-11-15T16:04:40.758Z,12.73
2022-11-15T16:10:02.301Z,12.58
2022-11-15T16:15:05.643Z,13.91
2022-11-15T16:20:23.673Z,16.95
2022-11-15T16:25:26.771Z,16.18
2022-11-15T16:30:29.777Z,15.08
2022-11-15T16:35:32.982Z,14.46
2022-11-15T16:40:36.300Z,14.00
2022-11-15T16:45:39.373Z,13.63
2022-11-15T16:50:43.145Z,13.34
2022-11-15T16:55:46.161Z,13.08
2022-11-15T17:00:57.200Z,12.86
2022-11-15T17:06:00.577Z,12.65
2022-11-15T17:11:10.543Z,13.77
2022-11-15T17:16:15.445Z,17.01
2022-11-15T17:21:21.085Z,16.79
2022-11-15T17:26:30.241Z,15.45
2022-11-15T17:31:37.018Z,14.70
2022-11-15T17:36:39.967Z,14.16
2022-11-15T17:41:42.955Z,13.74
2022-11-15T17:46:45.970Z,13.37
2022-11-15T17:51:50.081Z,13.07
2022-11-15T17:56:53.270Z,12.83
2022-11-15T18:01:56.281Z,12.68
2022-11-15T18:06:59.348Z,13.94
2022-11-15T18:12:02.371Z,17.14
2022-11-15T18:17:05.434Z,16.80
2022-11-15T18:22:10.393Z,15.49
2022-11-15T18:27:13.361Z,14.76
2022-11-15T18:32:17.875Z,14.22
2022-11-15T18:37:20.951Z,13.79
2022-11-15T18:42:24.090Z,13.43
2022-11-15T18:47:27.015Z,13.14
2022-11-15T18:52:29.943Z,12.88
2022-11-15T18:57:33.105Z,12.68
2022-11-15T19:02:36.024Z,13.94
2022-11-15T19:07:39.202Z,17.08
2022-11-15T19:12:42.361Z,16.99
2022-11-15T19:17:45.572Z,15.62
2022-11-15T19:22:48.515Z,14.83
2022-11-15T19:27:51.442Z,14.25
2022-11-15T19:32:54.437Z,13.77
2022-11-15T19:37:57.355Z,13.43
2022-11-15T19:43:00.290Z,13.13
2022-11-15T19:48:03.479Z,12.86
2022-11-15T19:53:06.534Z,13.98
2022-11-15T19:58:09.475Z,17.05
2022-11-15T20:03:12.989Z,16.57
2022-11-15T20:08:15.947Z,15.24
2022-11-15T20:13:18.926Z,14.49
2022-11-15T20:18:22.786Z,13.94
2022-11-15T20:23:28.950Z,13.46
2022-11-15T20:28:32.366Z,13.05
2022-11-15T20:33:35.643Z,12.71
2022-11-15T20:38:40.109Z,13.75
2022-11-15T20:43:44.045Z,16.89
2022-11-15T20:48:47.188Z,16.74
2022-11-15T20:53:50.534Z,15.28
2022-11-15T20:58:54.937Z,14.47
2022-11-15T21:03:58.423Z,13.89
2022-11-15T21:09:20.011Z,13.44
2022-11-15T21:14:23.272Z,13.04
2022-11-15T21:19:31.404Z,13.95
2022-11-15T21:24:38.883Z,17.09
2022-11-15T21:29:45.712Z,16.84
2022-11-15T21:34:48.685Z,15.38
2022-11-15T21:39:51.645Z,14.56
2022-11-15T21:44:54.574Z,13.99
2022-11-15T21:49:57.536Z,13.53
2022-11-15T21:55:00.485Z,13.13
2022-11-15T22:00:23.745Z,14.09
2022-11-15T22:05:26.714Z,17.20
2022-11-15T22:10:30.737Z,16.79
2022-11-15T22:15:33.752Z,15.35
2022-11-15T22:20:44.598Z,14.50
2022-11-15T22:25:48.300Z,13.88
2022-11-15T22:30:53.152Z,13.38
2022-11-15T22:35:56.755Z,12.97
2022-11-15T22:41:00.389Z,13.84
2022-11-15T22:46:04.589Z,16.91
2022-11-15T22:51:08.545Z,16.77
2022-11-15T22:56:14.116Z,15.37
2022-11-15T23:01:24.747Z,14.56
2022-11-15T23:06:27.716Z,13.98
2022-11-15T23:11:49.356Z,13.52
2022-11-15T23:16:52.391Z,13.11
2022-11-15T23:22:14.080Z,13.95
2022-11-15T23:27:20.182Z,17.09
2022-11-15T23:32:41.824Z,16.99
2022-11-15T23:37:44.829Z,15.44
2022-11-15T23:42:47.871Z,14.58
2022-11-15T23:47:50.914Z,13.99
2022-11-15T23:52:53.896Z,13.49
2022-11-15T23:57:57.488Z,13.10
